Time;durP1;ratioP1;P1;durP2;ratioP2;P2;SDS_P1;SDS_P2;PMS_P1;PMS_P2;Temp;Humidity;BMP_temperature;BMP_pressure;BME280_temperature;BME280_humidity;BME280_pressure;Samples;Min_cycle;Max_cycle;Signal;HPM_P1;HPM_P2
2021/11/25 00:02:19;;;;;;;59.67;24.95;;;;;;;5.35;100.00;101483.91;5023413;28;20065;-77
2021/11/25 00:04:48;;;;;;;64.22;27.23;;;;;;;5.33;100.00;101474.19;5029837;28;20096;-77
2021/11/25 00:07:16;;;;;;;61.30;26.65;;;;;;;5.34;100.00;101479.47;5020099;28;21489;-77
2021/11/25 00:09:44;;;;;;;62.85;26.77;;;;;;;5.36;100.00;101477.75;5029852;28;20180;-78
2021/11/25 00:12:12;;;;;;;57.65;24.08;;;;;;;5.36;100.00;101468.91;5022450;28;20136;-78
2021/11/25 00:14:40;;;;;;;58.17;25.35;;;;;;;5.36;100.00;101474.19;5030266;28;20172;-77
2021/11/25 00:17:08;;;;;;;62.47;26.40;;;;;;;5.35;100.00;101465.38;5023952;28;20575;-79
2021/11/25 00:19:37;;;;;;;62.97;26.42;;;;;;;5.36;100.00;101458.31;5027235;28;20060;-77
2021/11/25 00:22:06;;;;;;;59.22;26.63;;;;;;;5.35;100.00;101459.22;5024448;28;20080;-78
2021/11/25 00:24:38;;;;;;;59.38;25.80;;;;;;;5.35;100.00;101452.16;5027390;28;20359;-78
2021/11/25 00:27:06;;;;;;;62.10;26.25;;;;;;;5.35;100.00;101453.91;5024272;28;20143;-78
2021/11/25 00:29:34;;;;;;;58.35;24.13;;;;;;;5.34;100.00;101452.13;5028193;28;20079;-79
2021/11/25 00:32:02;;;;;;;49.78;25.50;;;;;;;5.35;100.00;101453.91;5020937;28;20135;-77
2021/11/25 00:34:31;;;;;;;57.67;25.23;;;;;;;5.37;100.00;101454.78;5027785;28;20053;-78
2021/11/25 00:36:59;;;;;;;60.28;26.38;;;;;;;5.35;100.00;101459.22;5022384;28;20057;-78
2021/11/25 00:39:28;;;;;;;62.00;26.48;;;;;;;5.34;100.00;101449.50;5028834;28;20184;-78
2021/11/25 00:41:57;;;;;;;56.22;22.65;;;;;;;5.32;100.00;101452.13;5022693;28;20095;-78
2021/11/25 00:44:25;;;;;;;57.13;25.52;;;;;;;5.33;100.00;101448.63;5027427;28;20177;-78
2021/11/25 00:46:53;;;;;;;57.03;26.55;;;;;;;5.33;100.00;101437.13;5020656;28;20084;-78
2021/11/25 00:49:21;;;;;;;54.33;23.88;;;;;;;5.31;100.00;101436.25;5026759;28;20045;-77
2021/11/25 00:51:49;;;;;;;56.10;25.35;;;;;;;5.30;100.00;101435.38;5023758;28;20088;-77
2021/11/25 00:54:17;;;;;;;51.95;23.92;;;;;;;5.31;100.00;101437.16;5019677;28;20048;-79
2021/11/25 00:56:46;;;;;;;59.95;25.50;;;;;;;5.36;100.00;101431.84;5028911;28;20184;-79
2021/11/25 00:59:14;;;;;;;62.42;26.42;;;;;;;5.36;100.00;101437.13;5024520;28;20049;-78
2021/11/25 01:01:43;;;;;;;55.70;23.55;;;;;;;5.32;100.00;101438.91;5027827;28;20044;-78
2021/11/25 01:04:11;;;;;;;53.42;24.23;;;;;;;5.33;100.00;101437.13;5023028;28;20053;-78
2021/11/25 01:06:39;;;;;;;60.08;25.88;;;;;;;5.33;100.00;101434.50;5028073;28;20377;-78
2021/11/25 01:09:08;;;;;;;64.80;27.75;;;;;;;5.31;100.00;101433.63;5028688;28;20759;-79
2021/11/25 01:11:43;;;;;;;69.65;27.08;;;;;;;5.34;100.00;101431.84;5022065;28;20046;-77
2021/11/25 01:14:14;;;;;;;65.28;27.17;;;;;;;5.32;100.00;101430.09;5026568;28;20061;-77
2021/11/25 01:16:43;;;;;;;66.18;28.50;;;;;;;5.33;100.00;101427.44;5021123;28;20087;-77
2021/11/25 01:19:11;;;;;;;63.35;26.75;;;;;;;5.32;100.00;101430.09;5026763;28;20107;-76
2021/11/25 01:21:39;;;;;;;65.28;26.92;;;;;;;5.30;100.00;101426.56;5024329;28;20053;-77
2021/11/25 01:24:07;;;;;;;65.10;28.15;;;;;;;5.30;100.00;101423.94;5025981;28;20051;-77
2021/11/25 01:26:35;;;;;;;68.13;27.50;;;;;;;5.28;100.00;101423.03;5021596;28;20309;-77
2021/11/25 01:29:03;;;;;;;69.43;29.58;;;;;;;5.33;100.00;101426.53;5026354;28;20044;-77
2021/11/25 01:31:32;;;;;;;66.05;26.17;;;;;;;5.34;100.00;101423.03;5020569;28;20077;-77
2021/11/25 01:34:01;;;;;;;72.45;27.98;;;;;;;5.30;100.00;101429.22;5027104;28;20049;-77
2021/11/25 01:36:29;;;;;;;65.13;27.52;;;;;;;5.28;100.00;101426.56;5026978;28;20076;-76
2021/11/25 01:38:57;;;;;;;75.32;27.73;;;;;;;5.29;100.00;101427.44;5023486;28;20136;-77
2021/11/25 01:41:25;;;;;;;76.25;29.00;;;;;;;5.28;100.00;101439.81;5026713;28;20136;-78
2021/11/25 01:43:54;;;;;;;70.28;27.92;;;;;;;5.27;100.00;101419.50;5020042;28;20053;-78
2021/11/25 01:46:22;;;;;;;80.32;30.40;;;;;;;5.28;100.00;101417.72;5026481;28;20045;-79
2021/11/25 01:48:52;;;;;;;76.28;31.17;;;;;;;5.27;100.00;101408.91;5019730;28;20204;-77
2021/11/25 01:51:22;;;;;;;74.68;30.60;;;;;;;5.27;100.00;101402.75;5028136;28;20208;-78
2021/11/25 01:53:51;;;;;;;77.85;31.13;;;;;;;5.27;100.00;101408.06;5020141;28;20237;-77
2021/11/25 01:56:20;;;;;;;71.30;29.17;;;;;;;5.30;100.00;101400.13;5029396;28;20366;-77
2021/11/25 01:58:48;;;;;;;77.95;28.92;;;;;;;5.26;100.00;101399.25;5025056;28;20141;-76
2021/11/25 02:01:20;;;;;;;64.32;27.90;;;;;;;5.28;100.00;101388.63;5022576;28;20148;-77
2021/11/25 02:03:50;;;;;;;75.68;30.40;;;;;;;5.27;100.00;101393.03;5019127;28;20135;-78
2021/11/25 02:06:19;;;;;;;68.03;28.42;;;;;;;5.24;100.00;101390.41;5021235;28;20105;-77
2021/11/25 02:08:48;;;;;;;73.63;29.33;;;;;;;5.24;100.00;101387.75;5021800;28;20495;-77
2021/11/25 02:11:16;;;;;;;77.75;29.73;;;;;;;5.24;100.00;101391.31;5025903;28;20524;-79
2021/11/25 02:13:44;;;;;;;74.15;29.05;;;;;;;5.24;100.00;101391.31;5020625;28;20057;-79
2021/11/25 02:16:13;;;;;;;63.25;27.45;;;;;;;5.23;100.00;101394.81;5028673;28;20489;-78
2021/11/25 02:18:41;;;;;;;70.32;29.13;;;;;;;5.21;100.00;101378.06;5021398;28;20076;-77
2021/11/25 02:21:11;;;;;;;77.63;31.23;;;;;;;5.22;100.00;101379.81;5026879;28;21321;-77
2021/11/25 02:23:39;;;;;;;70.65;28.02;;;;;;;5.23;100.00;101370.13;5019839;28;20085;-79
2021/11/25 02:26:07;;;;;;;58.47;27.35;;;;;;;5.22;100.00;101365.72;5018359;28;20137;-79
2021/11/25 02:28:38;;;;;;;73.97;29.70;;;;;;;5.22;100.00;101363.06;5017786;28;20564;-77
2021/11/25 02:31:07;;;;;;;67.95;28.63;;;;;;;5.19;100.00;101363.06;5026195;28;20376;-77
2021/11/25 02:33:38;;;;;;;67.82;29.38;;;;;;;5.21;100.00;101363.94;5023248;28;20059;-68
2021/11/25 02:36:07;;;;;;;66.78;27.98;;;;;;;5.16;100.00;101365.69;5023115;28;20057;-68
2021/11/25 02:38:38;;;;;;;74.07;30.67;;;;;;;5.16;100.00;101363.06;5021530;28;20096;-68
2021/11/25 02:41:07;;;;;;;74.95;30.65;;;;;;;5.13;100.00;101369.25;5029372;28;20063;-77
2021/11/25 02:43:36;;;;;;;71.53;28.98;;;;;;;5.12;100.00;101364.84;5028218;28;20172;-76
2021/11/25 02:46:06;;;;;;;75.63;31.77;;;;;;;5.09;100.00;101353.38;5032059;28;20053;-76
2021/11/25 02:48:39;;;;;;;71.65;29.05;;;;;;;5.11;100.00;101356.91;5028608;28;20076;-77
2021/11/25 02:51:08;;;;;;;65.35;28.48;;;;;;;5.07;100.00;101350.72;5032427;28;20089;-78
2021/11/25 02:53:37;;;;;;;72.00;31.35;;;;;;;5.02;100.00;101345.47;5032452;28;20151;-76
2021/11/25 02:56:08;;;;;;;71.07;30.50;;;;;;;5.01;100.00;101348.13;5028834;28;20544;-77
2021/11/25 02:58:37;;;;;;;75.45;32.70;;;;;;;4.98;100.00;101348.97;5030560;28;20191;-77
2021/11/25 03:01:09;;;;;;;66.75;27.13;;;;;;;4.99;100.00;101347.25;5028662;28;20133;-77
2021/11/25 03:03:37;;;;;;;77.85;30.50;;;;;;;4.97;100.00;101347.25;5033003;28;20143;-78
2021/11/25 03:06:05;;;;;;;74.93;30.73;;;;;;;4.95;100.00;101341.03;5025211;28;20099;-77
2021/11/25 03:08:33;;;;;;;75.55;30.65;;;;;;;4.94;100.00;101338.41;5030470;28;20158;-77
2021/11/25 03:11:06;;;;;;;73.30;31.17;;;;;;;4.93;100.00;101339.28;5028601;28;20072;-77
2021/11/25 03:13:37;;;;;;;76.57;30.20;;;;;;;4.98;100.00;101334.88;5030459;28;20238;-68
2021/11/25 03:16:06;;;;;;;74.65;30.75;;;;;;;4.94;100.00;101344.59;5029603;28;20065;-69
2021/11/25 03:18:35;;;;;;;71.40;30.38;;;;;;;4.96;100.00;101339.31;5032139;28;20102;-69
2021/11/25 03:21:04;;;;;;;71.82;32.25;;;;;;;4.93;100.00;101345.47;5033264;28;20048;-69
2021/11/25 03:23:34;;;;;;;68.22;28.08;;;;;;;4.94;100.00;101339.28;5031968;28;20117;-70
2021/11/25 03:26:06;;;;;;;62.58;29.08;;;;;;;4.94;100.00;101339.28;5028004;28;20249;-69
2021/11/25 03:28:37;;;;;;;67.38;27.67;;;;;;;4.91;100.00;101331.34;5029102;28;20567;-69
2021/11/25 03:31:05;;;;;;;68.38;28.90;;;;;;;4.88;100.00;101325.19;5029839;28;20223;-69
2021/11/25 03:33:34;;;;;;;72.35;29.42;;;;;;;4.84;100.00;101319.91;5026224;28;20064;-69
2021/11/25 03:36:06;;;;;;;74.10;30.48;;;;;;;4.83;100.00;101317.25;5032391;28;20060;-69
2021/11/25 03:38:36;;;;;;;76.82;30.83;;;;;;;4.82;100.00;101319.03;5030383;28;20122;-68
2021/11/25 03:41:07;;;;;;;75.88;30.90;;;;;;;4.79;100.00;101315.50;5027277;28;20520;-68
2021/11/25 03:43:36;;;;;;;75.18;29.42;;;;;;;4.81;100.00;101319.03;5030826;28;20547;-68
2021/11/25 03:46:04;;;;;;;70.50;29.70;;;;;;;4.81;100.00;101314.63;5028555;28;20144;-69
2021/11/25 03:48:32;;;;;;;77.88;31.90;;;;;;;4.81;100.00;101316.38;5031824;28;20442;-69
2021/11/25 03:51:03;;;;;;;73.00;30.02;;;;;;;4.84;100.00;101311.09;5027885;28;20045;-69
2021/11/25 03:53:32;;;;;;;78.70;31.23;;;;;;;4.79;100.00;101313.75;5024792;28;20570;-69
2021/11/25 03:56:00;;;;;;;86.68;32.63;;;;;;;4.79;100.00;101304.94;5028674;28;20048;-77
2021/11/25 03:58:31;;;;;;;73.25;30.40;;;;;;;4.78;100.00;101306.69;5019800;28;20160;-77
2021/11/25 04:01:00;;;;;;;73.68;30.70;;;;;;;4.79;100.00;101302.28;5030574;28;20596;-78
2021/11/25 04:03:28;;;;;;;82.53;31.52;;;;;;;4.75;100.00;101296.13;5022529;28;20062;-77
2021/11/25 04:05:56;;;;;;;85.78;31.50;;;;;;;4.74;100.00;101294.34;5028289;28;20118;-77
2021/11/25 04:08:25;;;;;;;76.70;30.73;;;;;;;4.78;100.00;101289.94;5023529;28;20061;-77
2021/11/25 04:10:53;;;;;;;84.75;33.00;;;;;;;4.75;100.00;101285.56;5027515;28;20048;-77
2021/11/25 04:13:21;;;;;;;76.80;30.73;;;;;;;4.73;100.00;101294.34;5024678;28;20519;-77
2021/11/25 04:15:50;;;;;;;89.55;32.55;;;;;;;4.71;100.00;101289.06;5028850;28;20056;-78
2021/11/25 04:18:18;;;;;;;81.28;30.48;;;;;;;4.70;100.00;101291.69;5023012;28;20153;-77
2021/11/25 04:20:46;;;;;;;80.55;29.95;;;;;;;4.70;100.00;101278.50;5026603;28;20641;-77
2021/11/25 04:23:14;;;;;;;81.32;32.03;;;;;;;4.66;100.00;101289.06;5027586;28;20049;-77
2021/11/25 04:25:42;;;;;;;78.22;31.35;;;;;;;4.67;100.00;101290.84;5025956;28;20481;-77
2021/11/25 04:28:11;;;;;;;84.55;31.75;;;;;;;4.65;100.00;101289.09;5022790;28;20052;-77
2021/11/25 04:36:21;;;;;;;81.65;30.15;;;;;;;4.65;100.00;101295.25;5026369;28;20270;-77
2021/11/25 04:38:49;;;;;;;83.00;33.30;;;;;;;4.66;100.00;101298.75;5023555;28;20049;-78
2021/11/25 04:41:17;;;;;;;87.32;33.63;;;;;;;4.62;100.00;101292.59;5027272;28;20051;-68
2021/11/25 04:43:45;;;;;;;86.78;31.50;;;;;;;4.62;100.00;101289.09;5024985;28;20181;-68
2021/11/25 04:46:13;;;;;;;88.57;32.15;;;;;;;4.59;100.00;101279.38;5030563;28;20077;-68
2021/11/25 04:48:42;;;;;;;82.45;32.03;;;;;;;4.58;100.00;101271.44;5024582;28;20045;-68
2021/11/25 04:51:11;;;;;;;82.57;31.75;;;;;;;4.54;100.00;101264.41;5028935;28;20057;-69
2021/11/25 04:53:38;;;;;;;87.05;33.47;;;;;;;4.47;100.00;101271.47;5022499;28;20050;-68
2021/11/25 04:56:07;;;;;;;82.70;31.67;;;;;;;4.43;100.00;101275.88;5029479;28;20662;-69
2021/11/25 04:58:35;;;;;;;86.22;33.72;;;;;;;4.44;100.00;101275.00;5021718;28;20045;-69
2021/11/25 05:01:04;;;;;;;83.70;33.72;;;;;;;4.41;100.00;101275.00;5025092;28;20046;-69
2021/11/25 05:03:32;;;;;;;89.28;33.97;;;;;;;4.38;100.00;101264.41;5021653;28;20387;-69
2021/11/25 05:06:05;;;;;;;87.93;30.92;;;;;;;4.41;100.00;101260.88;5029472;28;20114;-68
2021/11/25 05:08:33;;;;;;;89.87;34.43;;;;;;;4.39;100.00;101258.25;5022941;28;20085;-69
2021/11/25 05:11:01;;;;;;;90.95;33.03;;;;;;;4.38;100.00;101259.13;5026013;28;20432;-69
2021/11/25 05:13:30;;;;;;;83.50;33.22;;;;;;;4.34;100.00;101262.63;5024914;28;20073;-68
2021/11/25 05:16:00;;;;;;;79.82;30.30;;;;;;;4.35;100.00;101263.53;5029583;28;20069;-69
2021/11/25 05:18:28;;;;;;;86.22;34.63;;;;;;;4.38;100.00;101259.13;5024142;28;20056;-69
2021/11/25 05:20:57;;;;;;;85.47;31.17;;;;;;;4.37;100.00;101253.84;5027075;28;20053;-68
2021/11/25 05:23:27;;;;;;;99.00;35.67;;;;;;;4.41;100.00;101266.16;5026132;28;20437;-68
2021/11/25 05:25:58;;;;;;;85.80;33.65;;;;;;;4.40;100.00;101257.34;5025037;28;20060;-69
2021/11/25 05:28:27;;;;;;;92.07;34.10;;;;;;;4.44;100.00;101259.13;5026914;28;20056;-68
2021/11/25 05:30:55;;;;;;;91.07;33.38;;;;;;;4.44;100.00;101260.88;5022976;28;20049;-68
2021/11/25 05:33:23;;;;;;;97.78;34.63;;;;;;;4.44;100.00;101255.59;5027991;28;20114;-68
2021/11/25 05:35:52;;;;;;;96.72;34.97;;;;;;;4.44;100.00;101263.53;5021521;28;20126;-68
2021/11/25 05:38:20;;;;;;;93.40;36.70;;;;;;;4.45;100.00;101260.88;5024702;28;20464;-68
2021/11/25 05:40:49;;;;;;;85.60;30.73;;;;;;;4.44;100.00;101266.16;5023456;28;20061;-70
2021/11/25 05:43:17;;;;;;;94.30;35.00;;;;;;;4.47;100.00;101264.41;5028093;28;21833;-69
2021/11/25 05:45:45;;;;;;;93.47;32.85;;;;;;;4.49;100.00;101264.41;5022277;28;20144;-69
2021/11/25 05:48:13;;;;;;;92.97;34.35;;;;;;;4.51;100.00;101261.75;5028759;28;20102;-69
2021/11/25 05:50:41;;;;;;;88.57;31.33;;;;;;;4.51;100.00;101262.63;5020341;28;20521;-68
2021/11/25 05:53:09;;;;;;;91.93;33.33;;;;;;;4.53;100.00;101266.19;5019507;28;20087;-68
2021/11/25 05:55:39;;;;;;;89.47;33.53;;;;;;;4.55;100.00;101259.13;5026328;28;20053;-69
2021/11/25 05:58:09;;;;;;;103.05;35.65;;;;;;;4.58;100.00;101261.78;5025372;28;20042;-69
2021/11/25 06:00:38;;;;;;;96.25;34.42;;;;;;;4.60;100.00;101253.84;5019316;28;20041;-68
2021/11/25 06:03:06;;;;;;;93.72;32.58;;;;;;;4.62;100.00;101265.28;5023270;28;20478;-68
2021/11/25 06:05:34;;;;;;;93.53;34.55;;;;;;;4.62;100.00;101262.66;5026321;28;20049;-68
2021/11/25 06:08:02;;;;;;;82.10;30.95;;;;;;;4.62;100.00;101258.22;5022815;28;20678;-78
2021/11/25 06:10:31;;;;;;;93.25;35.35;;;;;;;4.65;100.00;101262.66;5026751;28;20045;-70
2021/11/25 06:13:00;;;;;;;92.40;33.40;;;;;;;4.65;100.00;101252.06;5026590;28;20536;-70
2021/11/25 06:15:30;;;;;;;88.38;33.55;;;;;;;4.66;100.00;101245.88;5020410;28;20145;-70
2021/11/25 06:17:58;;;;;;;89.20;35.33;;;;;;;4.66;100.00;101243.25;5026381;28;20218;-69
2021/11/25 06:20:26;;;;;;;88.95;34.97;;;;;;;4.65;100.00;101236.22;5021295;28;20315;-70
2021/11/25 06:22:55;;;;;;;87.10;35.53;;;;;;;4.65;100.00;101237.09;5026288;28;20913;-69
2021/11/25 06:25:25;;;;;;;93.60;32.25;;;;;;;4.65;100.00;101229.16;5021901;28;20130;-69
2021/11/25 06:27:54;;;;;;;94.07;33.58;;;;;;;4.66;100.00;101222.97;5022678;28;20084;-69
2021/11/25 06:30:24;;;;;;;86.32;33.92;;;;;;;4.70;100.00;101230.91;5019926;28;20077;-70
2021/11/25 06:32:54;;;;;;;99.50;33.83;;;;;;;4.70;100.00;101230.91;5026458;28;20640;-69
2021/11/25 06:35:23;;;;;;;96.47;34.28;;;;;;;4.69;100.00;101232.66;5024497;28;20126;-69
2021/11/25 06:37:53;;;;;;;93.47;34.78;;;;;;;4.67;100.00;101234.44;5024070;28;20083;-69
2021/11/25 06:40:25;;;;;;;90.07;34.45;;;;;;;4.66;100.00;101230.03;5020607;28;20288;-69
2021/11/25 06:42:53;;;;;;;83.05;33.17;;;;;;;4.67;100.00;101224.75;5023279;28;20219;-69
2021/11/25 06:45:21;;;;;;;96.78;34.03;;;;;;;4.70;100.00;101226.50;5017849;28;20534;-69
2021/11/25 06:47:49;;;;;;;82.53;33.22;;;;;;;4.70;100.00;101221.22;5025614;28;20048;-69
2021/11/25 06:50:20;;;;;;;95.18;33.58;;;;;;;4.69;100.00;101222.09;5018257;28;20132;-69
2021/11/25 06:52:48;;;;;;;83.70;32.20;;;;;;;4.71;100.00;101220.31;5024926;28;20055;-69
2021/11/25 06:55:18;;;;;;;87.05;33.90;;;;;;;4.68;100.00;101226.50;5017042;28;20056;-69
2021/11/25 06:57:49;;;;;;;83.07;31.33;;;;;;;4.65;100.00;101221.22;5037747;28;20132;-69
2021/11/25 07:00:19;;;;;;;82.50;31.35;;;;;;;4.67;100.00;101224.75;5022327;28;20111;-69
2021/11/25 07:02:47;;;;;;;92.85;33.22;;;;;;;4.70;100.00;101221.22;5026223;28;20052;-69
2021/11/25 07:05:15;;;;;;;90.25;32.70;;;;;;;4.72;100.00;101231.81;5021443;28;20073;-69
2021/11/25 07:07:45;;;;;;;83.20;32.85;;;;;;;4.74;100.00;101228.25;5025321;28;20088;-69
2021/11/25 07:10:16;;;;;;;81.55;31.55;;;;;;;4.80;100.00;101227.34;5020199;28;20511;-70
2021/11/25 07:12:46;;;;;;;78.75;30.08;;;;;;;4.80;100.00;101227.34;5023405;28;20064;-69
2021/11/25 07:15:17;;;;;;;82.70;31.15;;;;;;;4.84;100.00;101229.13;5015727;28;20114;-76
2021/11/25 07:17:46;;;;;;;85.65;31.52;;;;;;;4.89;100.00;101226.44;5028342;28;20132;-80
2021/11/25 07:20:14;;;;;;;80.03;29.67;;;;;;;4.89;100.00;101230.00;5021091;28;20129;-79
2021/11/25 07:22:42;;;;;;;84.40;31.90;;;;;;;4.90;100.00;101225.56;5026387;28;20136;-79
2021/11/25 07:25:14;;;;;;;82.95;30.02;;;;;;;4.95;100.00;101227.31;5024025;28;20049;-79
2021/11/25 07:27:43;;;;;;;79.15;27.83;;;;;;;4.97;100.00;101229.97;5031054;28;20561;-79
2021/11/25 07:30:13;;;;;;;73.78;28.85;;;;;;;5.01;100.00;101223.78;5027914;28;20489;-70
2021/11/25 07:32:41;;;;;;;77.25;29.40;;;;;;;5.05;100.00;101225.53;5031362;28;20101;-70
2021/11/25 07:35:11;;;;;;;74.63;26.52;;;;;;;5.08;100.00;101219.38;5024168;28;20136;-70
2021/11/25 07:37:40;;;;;;;66.38;25.02;;;;;;;5.11;100.00;101225.53;5029258;28;20045;-69
2021/11/25 07:40:09;;;;;;;69.47;25.98;;;;;;;5.19;100.00;101231.69;5023011;28;20057;-70
2021/11/25 07:42:39;;;;;;;58.17;22.80;;;;;;;5.21;100.00;101229.91;5028725;28;20050;-70
2021/11/25 07:45:08;;;;;;;61.70;22.42;;;;;;;5.26;100.00;101229.88;5026040;28;20048;-69
2021/11/25 07:47:37;;;;;;;63.67;23.38;;;;;;;5.29;100.00;101228.97;5026562;28;20138;-69
2021/11/25 07:50:09;;;;;;;56.85;24.35;;;;;;;5.30;100.00;101231.63;5023881;28;20053;-69
2021/11/25 07:52:37;;;;;;;59.28;24.95;;;;;;;5.39;100.00;101231.56;5024702;28;20053;-69
2021/11/25 07:55:08;;;;;;;60.90;22.20;;;;;;;5.38;100.00;101228.94;5027203;28;20160;-67
2021/11/25 07:57:39;;;;;;;58.70;20.83;;;;;;;5.38;100.00;101227.19;5028112;28;20053;-68
2021/11/25 08:00:09;;;;;;;62.97;22.08;;;;;;;5.49;100.00;101242.13;5023910;28;20731;-68
2021/11/25 08:02:39;;;;;;;49.88;20.75;;;;;;;5.51;100.00;101240.34;5030371;28;20053;-68
2021/11/25 08:05:08;;;;;;;49.42;21.67;;;;;;;5.51;100.00;101243.00;5021719;28;20053;-68
2021/11/25 08:07:37;;;;;;;47.47;19.38;;;;;;;5.51;100.00;101246.53;5026130;28;20438;-68
2021/11/25 08:10:06;;;;;;;53.78;20.75;;;;;;;5.53;100.00;101241.22;5022710;28;20080;-67
2021/11/25 08:12:34;;;;;;;56.22;21.77;;;;;;;5.53;100.00;101252.69;5027603;28;20103;-76
2021/11/25 08:15:05;;;;;;;59.50;22.77;;;;;;;5.56;100.00;101244.72;5020579;28;20053;-76
2021/11/25 08:17:33;;;;;;;59.95;21.83;;;;;;;5.59;100.00;101243.84;5026021;28;20144;-76
2021/11/25 08:20:02;;;;;;;58.53;21.00;;;;;;;5.59;100.00;101243.84;5019160;28;20501;-76
2021/11/25 08:22:30;;;;;;;56.45;22.25;;;;;;;5.64;100.00;101246.47;5026854;28;20125;-76
2021/11/25 08:24:58;;;;;;;49.25;20.85;;;;;;;5.66;100.00;101250.88;5021130;28;20049;-76
2021/11/25 08:27:27;;;;;;;57.05;20.65;;;;;;;5.68;100.00;101251.72;5025185;28;20057;-77
2021/11/25 08:29:56;;;;;;;48.92;21.42;;;;;;;5.73;100.00;101241.13;5025127;28;20052;-77
2021/11/25 08:32:25;;;;;;;58.13;20.17;;;;;;;5.76;100.00;101246.41;5020359;28;20144;-77
2021/11/25 08:34:54;;;;;;;52.28;22.55;;;;;;;5.80;100.00;101250.78;5023158;28;20053;-77
2021/11/25 08:37:22;;;;;;;51.45;19.63;;;;;;;5.82;100.00;101259.59;5028746;28;20304;-76
2021/11/25 08:39:50;;;;;;;54.13;20.48;;;;;;;5.86;100.00;101257.84;5024466;28;20136;-77
2021/11/25 08:42:18;;;;;;;51.78;20.42;;;;;;;5.87;100.00;101255.16;5022108;28;20080;-69
2021/11/25 08:44:46;;;;;;;46.85;19.48;;;;;;;5.89;100.00;101258.69;5025346;28;20057;-76
2021/11/25 08:47:14;;;;;;;48.63;20.00;;;;;;;5.95;100.00;101260.41;5021115;28;20388;-76
2021/11/25 08:49:43;;;;;;;51.28;19.45;;;;;;;5.97;100.00;101254.25;5024996;28;20397;-76
2021/11/25 08:52:12;;;;;;;45.17;18.85;;;;;;;6.03;100.00;101255.09;5025203;28;20175;-76
2021/11/25 08:54:40;;;;;;;37.63;15.90;;;;;;;6.07;100.00;101255.06;5027000;28;20447;-75
2021/11/25 08:57:09;;;;;;;34.10;15.55;;;;;;;6.15;100.00;101252.38;5018897;28;20045;-75
2021/11/25 08:59:37;;;;;;;32.88;12.75;;;;;;;6.20;100.00;101249.66;5027512;28;20328;-75
2021/11/25 09:02:05;;;;;;;27.70;10.15;;;;;;;6.24;100.00;101249.63;5027716;28;20055;-76
2021/11/25 09:04:33;;;;;;;27.48;10.00;;;;;;;6.31;100.00;101250.47;5019649;28;20053;-76
2021/11/25 09:07:02;;;;;;;28.10;9.77;;;;;;;6.35;100.00;101255.75;5027313;28;20045;-75
2021/11/25 09:09:30;;;;;;;18.50;7.80;;;;;;;6.40;100.00;101250.38;5022053;28;20052;-75
2021/11/25 09:11:59;;;;;;;25.45;7.57;;;;;;;6.44;100.00;101251.28;5027762;28;20508;-77
2021/11/25 09:14:27;;;;;;;20.42;6.32;;;;;;;6.46;100.00;101258.31;5018804;28;20131;-77
2021/11/25 09:16:55;;;;;;;18.80;6.40;;;;;;;6.50;100.00;101261.81;5028382;28;20053;-77
2021/11/25 09:19:23;;;;;;;16.95;5.45;;;;;;;6.50;100.00;101252.09;5023945;28;20612;-77
2021/11/25 09:21:51;;;;;;;17.58;6.18;;;;;;;6.52;100.00;101252.97;5029208;28;20077;-75
2021/11/25 09:24:21;;;;;;;15.30;4.80;;;;;;;6.56;100.00;101258.25;5023051;28;20049;-77
2021/11/25 09:26:48;;;;;;;13.95;3.72;;;;;;;6.57;100.00;101255.53;5027949;28;20041;-69
2021/11/25 09:29:16;;;;;;;12.65;4.22;;;;;;;6.60;100.00;101260.84;5021062;28;20682;-70
2021/11/25 09:31:44;;;;;;;16.38;4.32;;;;;;;6.62;100.00;101264.34;5029389;28;20093;-69
2021/11/25 09:34:12;;;;;;;10.85;3.65;;;;;;;6.63;100.00;101271.41;5022277;28;20085;-69
2021/11/25 09:36:41;;;;;;;14.35;4.35;;;;;;;6.64;100.00;101269.63;5028692;28;20053;-69
2021/11/25 09:39:10;;;;;;;13.88;3.85;;;;;;;6.70;100.00;101282.84;5020594;28;20046;-69
2021/11/25 09:41:40;;;;;;;13.10;3.78;;;;;;;6.72;100.00;101275.75;5017076;28;20516;-69
2021/11/25 09:44:08;;;;;;;7.40;2.80;;;;;;;6.76;100.00;101269.56;5022160;28;20116;-69
2021/11/25 09:46:38;;;;;;;10.77;4.40;;;;;;;6.84;100.00;101282.72;5023651;28;20085;-69
2021/11/25 09:49:08;;;;;;;11.98;5.07;;;;;;;6.94;100.00;101265.81;5020101;28;20136;-69
2021/11/25 09:51:36;;;;;;;12.15;3.90;;;;;;;7.05;100.00;101268.38;5019224;28;20053;-76
2021/11/25 09:54:04;;;;;;;12.68;4.10;;;;;;;7.10;100.00;101262.13;5020907;28;20085;-76
2021/11/25 09:56:32;;;;;;;10.73;3.15;;;;;;;7.23;100.00;101265.50;5021205;28;20061;-76
2021/11/25 09:59:01;;;;;;;14.90;3.97;;;;;;;7.34;100.00;101261.84;5028192;28;20486;-76
2021/11/25 10:01:31;;;;;;;13.00;3.75;;;;;;;7.28;100.00;101255.69;5025550;28;20512;-77
2021/11/25 10:04:00;;;;;;;10.75;3.10;;;;;;;7.26;100.00;101261.94;5020942;28;20235;-77
2021/11/25 10:06:33;;;;;;;12.85;3.75;;;;;;;7.46;100.00;101261.72;5022986;28;20053;-78
2021/11/25 10:09:02;;;;;;;11.82;3.55;;;;;;;7.62;100.00;101270.34;5020439;28;20552;-75
2021/11/25 10:11:33;;;;;;;13.02;3.63;;;;;;;7.70;100.00;101271.13;5022450;28;20088;-77
2021/11/25 10:14:07;;;;;;;14.00;3.15;;;;;;;7.70;100.00;101275.56;5021716;28;20084;-69
2021/11/25 10:16:39;;;;;;;13.38;3.25;;;;;;;7.73;100.00;101267.53;5023962;28;20053;-70
2021/11/25 10:19:12;;;;;;;8.52;2.45;;;;;;;7.83;100.00;101274.47;5017082;28;20694;-69
2021/11/25 10:21:42;;;;;;;9.20;1.92;;;;;;;7.72;100.00;101269.31;5020887;28;20053;-67
2021/11/25 10:24:10;;;;;;;9.80;2.50;;;;;;;7.78;100.00;101277.22;5027917;28;20079;-70
2021/11/25 10:26:38;;;;;;;12.48;3.08;;;;;;;7.84;100.00;101277.13;5020608;28;20049;-69
2021/11/25 10:29:10;;;;;;;9.55;2.33;;;;;;;7.97;100.00;101275.19;5026092;28;20372;-69
2021/11/25 10:31:41;;;;;;;9.88;2.30;;;;;;;8.03;100.00;101283.06;5023501;28;20127;-70
2021/11/25 10:34:13;;;;;;;6.65;1.90;;;;;;;8.17;100.00;101289.94;5026495;28;20151;-70
2021/11/25 10:36:56;;;;;;;7.93;2.10;;;;;;;8.39;100.00;101287.84;5022307;28;20200;-67
2021/11/25 10:39:46;;;;;;;3.83;1.52;;;;;;;8.63;99.10;101286.59;5027632;28;20081;-67
2021/11/25 10:42:16;;;;;;;10.48;2.00;;;;;;;8.61;94.64;101283.09;5020766;28;20056;-69
2021/11/25 10:44:50;;;;;;;7.03;1.88;;;;;;;8.60;91.08;101279.56;5025953;28;20182;-68
2021/11/25 10:47:19;;;;;;;9.13;1.52;;;;;;;8.64;87.52;101283.03;5018954;28;20049;-67
2021/11/25 10:49:50;;;;;;;17.30;2.33;;;;;;;8.80;87.84;101280.97;5021084;28;20493;-67
2021/11/25 10:52:22;;;;;;;8.55;1.95;;;;;;;8.60;86.63;101290.19;5014183;28;20515;-66
2021/11/25 10:54:53;;;;;;;9.00;1.60;;;;;;;8.52;86.57;101288.56;5021861;28;20284;-67
2021/11/25 10:57:23;;;;;;;8.45;1.98;;;;;;;8.47;87.86;101279.78;5017895;28;20052;-69
2021/11/25 10:59:55;;;;;;;16.77;1.83;;;;;;;8.38;88.07;101292.28;5021931;28;20049;-66
2021/11/25 11:02:31;;;;;;;7.10;2.13;;;;;;;8.30;88.09;101290.66;5023649;28;20307;-66
2021/11/25 11:05:04;;;;;;;11.80;2.30;;;;;;;8.24;87.70;101291.63;5010683;28;20115;-66
2021/11/25 11:07:36;;;;;;;11.50;1.98;;;;;;;8.25;87.03;101293.38;5023243;28;20044;-68
2021/11/25 11:10:23;;;;;;;11.13;2.25;;;;;;;8.14;87.61;101293.56;5028976;28;20127;-66
2021/11/25 11:13:13;;;;;;;17.88;2.50;;;;;;;8.19;87.58;101301.47;5019174;28;20369;-66
2021/11/25 11:15:57;;;;;;;11.23;2.20;;;;;;;8.18;86.03;101297.91;5029171;28;20056;-66
2021/11/25 11:18:44;;;;;;;;;;;;;;;8.14;85.67;101287.34;5027374;28;20064;-72
2021/11/25 11:21:30;;;;;;;8.18;2.13;;;;;;;8.10;84.40;101290.94;5031967;28;19925;-74
2021/11/25 11:24:01;;;;;;;8.30;1.80;;;;;;;8.08;84.18;101290.97;5030696;28;20132;-73
2021/11/25 11:26:29;;;;;;;9.52;2.08;;;;;;;8.10;86.00;101283.84;5023495;28;20164;-73
2021/11/25 11:28:57;;;;;;;10.23;1.90;;;;;;;8.10;86.25;101289.16;5030362;28;20053;-74